logo
Search for airport 
image banner adimage banner adimage banner ad
image banner ad

EPGOL - Goledzinow

Located in , Poland

ICAO - , IATA -

Data provided by Airmate  

General information

Coordinates: N51°15'45" E16°55'18"
Elevation is 456 feet MSL.
 
View others Airports in Lower Silesia

Operational data

Special qualification required
Current time UTC:
Current local time:
Weather at : EPWR - Wroclaw/Strachowice ( 18 km )
METAR: EPWR 241000Z 29005KT 260V330 9999 FEW023 17/11 Q1027
TAF: TAF EPWR 240830Z 2409/2509 29010KT CAVOK BECMG 2410/2413 35005KT BECMG 2421/2424 05010KT BECMG 2503/2506 11005KT BKN013
View NOTAMs / SUP AIP / TFR affecting this airport [VIEW]
Communications frequencies: [VIEW]

Runways:

RWY identifierQFULength (ft)Width (ft)SurfaceLDA (ft)
09-1°2526164GRASS
27-1°2526164GRASS

Airport contact information

Address: Poland

Satellite view of EPGOL